sensor_id;sensor_type;location;lat;lon;timestamp;temperature;humidity
51825;DHT22;37879;52.986;6.282;2023-05-07T00:01:35;13.50;99.90
51825;DHT22;37879;52.986;6.282;2023-05-07T00:04:01;13.50;99.90
51825;DHT22;37879;52.986;6.282;2023-05-07T00:06:27;13.50;99.90
51825;DHT22;37879;52.986;6.282;2023-05-07T00:08:55;13.50;99.90
51825;DHT22;37879;52.986;6.282;2023-05-07T00:11:21;13.50;99.90
51825;DHT22;37879;52.986;6.282;2023-05-07T00:13:48;13.50;99.90
51825;DHT22;37879;52.986;6.282;2023-05-07T00:16:13;13.50;99.90
51825;DHT22;37879;52.986;6.282;2023-05-07T00:18:39;13.50;99.90
51825;DHT22;37879;52.986;6.282;2023-05-07T00:21:05;13.40;99.90
51825;DHT22;37879;52.986;6.282;2023-05-07T00:23:30;13.50;99.90
51825;DHT22;37879;52.986;6.282;2023-05-07T00:25:56;12.30;99.90
51825;DHT22;37879;52.986;6.282;2023-05-07T00:28:22;13.40;99.90
51825;DHT22;37879;52.986;6.282;2023-05-07T00:30:47;13.40;99.90
51825;DHT22;37879;52.986;6.282;2023-05-07T00:33:13;13.40;99.90
51825;DHT22;37879;52.986;6.282;2023-05-07T00:35:38;13.40;99.90
51825;DHT22;37879;52.986;6.282;2023-05-07T00:38:04;13.40;99.90
51825;DHT22;37879;52.986;6.282;2023-05-07T00:40:30;13.40;99.90
51825;DHT22;37879;52.986;6.282;2023-05-07T00:42:55;13.40;99.90
51825;DHT22;37879;52.986;6.282;2023-05-07T00:45:28;13.30;99.90
51825;DHT22;37879;52.986;6.282;2023-05-07T00:47:55;13.30;99.90
51825;DHT22;37879;52.986;6.282;2023-05-07T00:50:22;13.30;99.90
51825;DHT22;37879;52.986;6.282;2023-05-07T00:52:48;13.20;99.90
51825;DHT22;37879;52.986;6.282;2023-05-07T00:55:14;13.20;99.90
51825;DHT22;37879;52.986;6.282;2023-05-07T00:57:41;13.20;99.90
51825;DHT22;37879;52.986;6.282;2023-05-07T01:00:08;13.20;99.90
51825;DHT22;37879;52.986;6.282;2023-05-07T01:02:35;13.20;99.90
51825;DHT22;37879;52.986;6.282;2023-05-07T01:05:02;13.20;99.90
51825;DHT22;37879;52.986;6.282;2023-05-07T01:07:32;13.20;99.90
51825;DHT22;37879;52.986;6.282;2023-05-07T01:10:01;13.10;99.90
51825;DHT22;37879;52.986;6.282;2023-05-07T01:12:28;13.10;99.90
51825;DHT22;37879;52.986;6.282;2023-05-07T01:14:55;13.40;99.90
51825;DHT22;37879;52.986;6.282;2023-05-07T01:17:21;13.10;99.90
51825;DHT22;37879;52.986;6.282;2023-05-07T01:19:46;13.00;99.90
51825;DHT22;37879;52.986;6.282;2023-05-07T01:22:15;13.00;99.90
51825;DHT22;37879;52.986;6.282;2023-05-07T01:24:42;13.00;99.90
51825;DHT22;37879;52.986;6.282;2023-05-07T01:27:08;12.90;99.90
51825;DHT22;37879;52.986;6.282;2023-05-07T01:29:34;12.90;99.90
51825;DHT22;37879;52.986;6.282;2023-05-07T01:32:01;12.90;99.90
51825;DHT22;37879;52.986;6.282;2023-05-07T01:34:30;12.90;99.90
51825;DHT22;37879;52.986;6.282;2023-05-07T01:36:58;12.90;99.90
51825;DHT22;37879;52.986;6.282;2023-05-07T01:39:25;12.90;99.90
51825;DHT22;37879;52.986;6.282;2023-05-07T01:41:54;12.80;99.90
51825;DHT22;37879;52.986;6.282;2023-05-07T01:44:20;12.80;99.90
51825;DHT22;37879;52.986;6.282;2023-05-07T01:46:46;12.70;99.90
51825;DHT22;37879;52.986;6.282;2023-05-07T01:49:13;12.70;99.90
51825;DHT22;37879;52.986;6.282;2023-05-07T01:51:39;12.70;99.90
51825;DHT22;37879;52.986;6.282;2023-05-07T01:54:05;12.60;99.90
51825;DHT22;37879;52.986;6.282;2023-05-07T01:56:32;12.60;99.90
51825;DHT22;37879;52.986;6.282;2023-05-07T01:58:57;12.60;99.90
51825;DHT22;37879;52.986;6.282;2023-05-07T02:01:23;12.60;99.90
51825;DHT22;37879;52.986;6.282;2023-05-07T02:03:49;12.60;99.90
51825;DHT22;37879;52.986;6.282;2023-05-07T02:06:14;12.50;99.90
51825;DHT22;37879;52.986;6.282;2023-05-07T02:08:40;12.50;99.90
51825;DHT22;37879;52.986;6.282;2023-05-07T02:11:06;12.40;99.90
51825;DHT22;37879;52.986;6.282;2023-05-07T02:13:33;12.40;99.90
51825;DHT22;37879;52.986;6.282;2023-05-07T02:16:00;12.40;99.90
51825;DHT22;37879;52.986;6.282;2023-05-07T02:18:25;12.40;99.90
51825;DHT22;37879;52.986;6.282;2023-05-07T02:20:51;12.30;99.90
51825;DHT22;37879;52.986;6.282;2023-05-07T02:23:17;12.30;99.90
51825;DHT22;37879;52.986;6.282;2023-05-07T02:25:42;12.30;99.90
51825;DHT22;37879;52.986;6.282;2023-05-07T02:28:08;12.20;99.90
51825;DHT22;37879;52.986;6.282;2023-05-07T02:30:33;12.20;99.90
51825;DHT22;37879;52.986;6.282;2023-05-07T02:33:00;12.20;99.90
51825;DHT22;37879;52.986;6.282;2023-05-07T02:35:26;12.10;99.90
51825;DHT22;37879;52.986;6.282;2023-05-07T02:37:51;12.10;99.90
51825;DHT22;37879;52.986;6.282;2023-05-07T02:40:17;12.10;99.90
51825;DHT22;37879;52.986;6.282;2023-05-07T02:42:43;12.00;99.90
51825;DHT22;37879;52.986;6.282;2023-05-07T02:45:09;12.00;99.90
51825;DHT22;37879;52.986;6.282;2023-05-07T02:47:34;12.00;99.90
51825;DHT22;37879;52.986;6.282;2023-05-07T02:50:00;12.00;99.90
51825;DHT22;37879;52.986;6.282;2023-05-07T02:52:26;12.00;99.90
51825;DHT22;37879;52.986;6.282;2023-05-07T02:54:52;12.00;99.90
51825;DHT22;37879;52.986;6.282;2023-05-07T02:57:17;12.00;99.90
51825;DHT22;37879;52.986;6.282;2023-05-07T02:59:43;12.00;99.90
51825;DHT22;37879;52.986;6.282;2023-05-07T03:02:09;12.00;99.90
51825;DHT22;37879;52.986;6.282;2023-05-07T03:04:35;12.00;99.90
51825;DHT22;37879;52.986;6.282;2023-05-07T03:07:01;12.00;99.90
51825;DHT22;37879;52.986;6.282;2023-05-07T03:09:26;11.90;99.90
51825;DHT22;37879;52.986;6.282;2023-05-07T03:11:52;11.80;99.90
51825;DHT22;37879;52.986;6.282;2023-05-07T03:14:18;12.30;99.90
51825;DHT22;37879;52.986;6.282;2023-05-07T03:16:43;11.80;99.90
51825;DHT22;37879;52.986;6.282;2023-05-07T03:19:09;11.80;99.90
51825;DHT22;37879;52.986;6.282;2023-05-07T03:21:34;11.70;99.90
51825;DHT22;37879;52.986;6.282;2023-05-07T03:24:00;11.70;99.90
51825;DHT22;37879;52.986;6.282;2023-05-07T03:26:26;11.70;99.90
51825;DHT22;37879;52.986;6.282;2023-05-07T03:28:52;11.60;99.90
51825;DHT22;37879;52.986;6.282;2023-05-07T03:31:20;11.60;99.90
51825;DHT22;37879;52.986;6.282;2023-05-07T03:33:56;11.70;99.90
51825;DHT22;37879;52.986;6.282;2023-05-07T03:36:23;11.70;99.90
51825;DHT22;37879;52.986;6.282;2023-05-07T03:38:49;11.60;99.90
51825;DHT22;37879;52.986;6.282;2023-05-07T03:41:15;11.90;99.90
51825;DHT22;37879;52.986;6.282;2023-05-07T03:43:41;11.60;99.90
51825;DHT22;37879;52.986;6.282;2023-05-07T03:46:07;11.50;99.90
51825;DHT22;37879;52.986;6.282;2023-05-07T03:48:32;11.60;99.90
51825;DHT22;37879;52.986;6.282;2023-05-07T03:50:58;11.60;99.90
51825;DHT22;37879;52.986;6.282;2023-05-07T03:53:24;11.50;99.90
51825;DHT22;37879;52.986;6.282;2023-05-07T03:55:50;11.50;99.90
51825;DHT22;37879;52.986;6.282;2023-05-07T03:58:15;11.40;99.90
51825;DHT22;37879;52.986;6.282;2023-05-07T04:00:42;11.50;99.90
51825;DHT22;37879;52.986;6.282;2023-05-07T04:03:08;11.50;99.90
51825;DHT22;37879;52.986;6.282;2023-05-07T04:05:34;11.50;99.90
51825;DHT22;37879;52.986;6.282;2023-05-07T04:08:00;11.40;99.90
51825;DHT22;37879;52.986;6.282;2023-05-07T04:10:26;11.40;99.90
51825;DHT22;37879;52.986;6.282;2023-05-07T04:12:53;11.40;99.90
51825;DHT22;37879;52.986;6.282;2023-05-07T04:15:19;11.40;99.90
51825;DHT22;37879;52.986;6.282;2023-05-07T04:17:45;11.30;99.90
51825;DHT22;37879;52.986;6.282;2023-05-07T04:20:14;11.30;99.90
51825;DHT22;37879;52.986;6.282;2023-05-07T04:22:40;11.30;99.90
51825;DHT22;37879;52.986;6.282;2023-05-07T04:25:06;11.30;99.90
51825;DHT22;37879;52.986;6.282;2023-05-07T04:27:33;11.30;99.90
51825;DHT22;37879;52.986;6.282;2023-05-07T04:29:58;11.30;99.90
51825;DHT22;37879;52.986;6.282;2023-05-07T04:32:26;11.30;99.90
51825;DHT22;37879;52.986;6.282;2023-05-07T04:34:55;11.30;99.90
51825;DHT22;37879;52.986;6.282;2023-05-07T04:37:21;11.30;99.90
51825;DHT22;37879;52.986;6.282;2023-05-07T04:39:47;11.30;99.90
51825;DHT22;37879;52.986;6.282;2023-05-07T04:42:16;11.30;99.90
51825;DHT22;37879;52.986;6.282;2023-05-07T04:44:44;11.30;99.90
51825;DHT22;37879;52.986;6.282;2023-05-07T04:47:09;11.30;99.90
51825;DHT22;37879;52.986;6.282;2023-05-07T04:49:35;11.30;99.90
51825;DHT22;37879;52.986;6.282;2023-05-07T04:52:01;11.30;99.90
51825;DHT22;37879;52.986;6.282;2023-05-07T04:54:27;11.30;99.90
51825;DHT22;37879;52.986;6.282;2023-05-07T04:56:52;11.30;99.90
51825;DHT22;37879;52.986;6.282;2023-05-07T04:59:18;11.30;99.90
51825;DHT22;37879;52.986;6.282;2023-05-07T05:01:43;11.40;99.90
51825;DHT22;37879;52.986;6.282;2023-05-07T05:04:09;11.40;99.90
51825;DHT22;37879;52.986;6.282;2023-05-07T05:06:35;11.40;99.90
51825;DHT22;37879;52.986;6.282;2023-05-07T05:09:01;11.30;99.90
51825;DHT22;37879;52.986;6.282;2023-05-07T05:11:26;11.40;99.90
51825;DHT22;37879;52.986;6.282;2023-05-07T05:13:52;11.40;99.90
51825;DHT22;37879;52.986;6.282;2023-05-07T05:16:18;11.40;99.90
51825;DHT22;37879;52.986;6.282;2023-05-07T05:18:43;11.40;99.90
51825;DHT22;37879;52.986;6.282;2023-05-07T05:21:09;11.40;99.90
51825;DHT22;37879;52.986;6.282;2023-05-07T05:23:35;11.40;99.90
51825;DHT22;37879;52.986;6.282;2023-05-07T05:26:00;11.40;99.90
51825;DHT22;37879;52.986;6.282;2023-05-07T05:28:26;11.40;99.90
51825;DHT22;37879;52.986;6.282;2023-05-07T05:30:53;11.40;99.90
51825;DHT22;37879;52.986;6.282;2023-05-07T05:33:18;11.40;99.90
51825;DHT22;37879;52.986;6.282;2023-05-07T05:35:44;11.40;99.90
51825;DHT22;37879;52.986;6.282;2023-05-07T05:38:10;11.40;99.90
51825;DHT22;37879;52.986;6.282;2023-05-07T05:40:36;11.50;99.90
51825;DHT22;37879;52.986;6.282;2023-05-07T05:43:01;11.50;99.90
51825;DHT22;37879;52.986;6.282;2023-05-07T05:45:27;11.50;99.90
51825;DHT22;37879;52.986;6.282;2023-05-07T05:47:53;11.50;99.90
51825;DHT22;37879;52.986;6.282;2023-05-07T05:50:18;11.90;99.90
51825;DHT22;37879;52.986;6.282;2023-05-07T05:52:44;12.00;99.90
51825;DHT22;37879;52.986;6.282;2023-05-07T05:55:10;11.60;99.90
51825;DHT22;37879;52.986;6.282;2023-05-07T05:57:35;11.60;99.90
51825;DHT22;37879;52.986;6.282;2023-05-07T06:00:02;11.60;99.90
51825;DHT22;37879;52.986;6.282;2023-05-07T06:02:28;11.60;99.90
51825;DHT22;37879;52.986;6.282;2023-05-07T06:04:53;11.70;99.90
51825;DHT22;37879;52.986;6.282;2023-05-07T06:07:19;11.70;99.90
51825;DHT22;37879;52.986;6.282;2023-05-07T06:09:45;11.70;99.90
51825;DHT22;37879;52.986;6.282;2023-05-07T06:12:11;11.80;99.90
51825;DHT22;37879;52.986;6.282;2023-05-07T06:14:37;11.80;99.90
51825;DHT22;37879;52.986;6.282;2023-05-07T06:17:02;11.90;99.90
51825;DHT22;37879;52.986;6.282;2023-05-07T06:19:28;11.90;99.90
51825;DHT22;37879;52.986;6.282;2023-05-07T06:21:54;12.00;99.90
51825;DHT22;37879;52.986;6.282;2023-05-07T06:24:21;12.00;99.90
51825;DHT22;37879;52.986;6.282;2023-05-07T06:26:47;12.00;99.90
51825;DHT22;37879;52.986;6.282;2023-05-07T06:29:12;12.10;99.90
51825;DHT22;37879;52.986;6.282;2023-05-07T06:31:38;12.10;99.90
51825;DHT22;37879;52.986;6.282;2023-05-07T06:34:03;12.10;99.90
51825;DHT22;37879;52.986;6.282;2023-05-07T06:36:30;12.20;99.90
51825;DHT22;37879;52.986;6.282;2023-05-07T06:38:56;12.20;99.90
51825;DHT22;37879;52.986;6.282;2023-05-07T06:41:22;12.30;99.90
51825;DHT22;37879;52.986;6.282;2023-05-07T06:43:47;12.40;99.90
51825;DHT22;37879;52.986;6.282;2023-05-07T06:46:13;12.40;99.90
51825;DHT22;37879;52.986;6.282;2023-05-07T06:48:39;12.50;99.90
51825;DHT22;37879;52.986;6.282;2023-05-07T06:51:04;12.60;99.90
51825;DHT22;37879;52.986;6.282;2023-05-07T06:53:30;12.70;99.90
51825;DHT22;37879;52.986;6.282;2023-05-07T06:55:56;12.60;99.90
51825;DHT22;37879;52.986;6.282;2023-05-07T06:58:22;12.70;99.90
51825;DHT22;37879;52.986;6.282;2023-05-07T07:00:48;12.80;99.90
51825;DHT22;37879;52.986;6.282;2023-05-07T07:03:14;12.90;99.90
51825;DHT22;37879;52.986;6.282;2023-05-07T07:05:42;12.90;99.90
51825;DHT22;37879;52.986;6.282;2023-05-07T07:08:08;12.90;99.90
51825;DHT22;37879;52.986;6.282;2023-05-07T07:10:33;12.90;99.90
51825;DHT22;37879;52.986;6.282;2023-05-07T07:12:59;12.90;99.90
51825;DHT22;37879;52.986;6.282;2023-05-07T07:15:26;12.90;99.90
51825;DHT22;37879;52.986;6.282;2023-05-07T07:17:52;12.90;99.90
51825;DHT22;37879;52.986;6.282;2023-05-07T07:20:17;13.00;99.90
51825;DHT22;37879;52.986;6.282;2023-05-07T07:22:43;13.00;99.90
51825;DHT22;37879;52.986;6.282;2023-05-07T07:25:09;13.00;99.90
51825;DHT22;37879;52.986;6.282;2023-05-07T07:27:35;13.00;99.90
51825;DHT22;37879;52.986;6.282;2023-05-07T07:30:01;13.00;99.90
51825;DHT22;37879;52.986;6.282;2023-05-07T07:32:27;13.10;99.90
51825;DHT22;37879;52.986;6.282;2023-05-07T07:34:52;13.10;99.90
51825;DHT22;37879;52.986;6.282;2023-05-07T07:37:18;13.20;99.90
51825;DHT22;37879;52.986;6.282;2023-05-07T07:39:43;13.30;99.90
51825;DHT22;37879;52.986;6.282;2023-05-07T07:42:09;13.50;99.90
51825;DHT22;37879;52.986;6.282;2023-05-07T07:44:35;13.50;99.90
51825;DHT22;37879;52.986;6.282;2023-05-07T07:47:00;13.60;99.90
51825;DHT22;37879;52.986;6.282;2023-05-07T07:49:26;13.80;99.90
51825;DHT22;37879;52.986;6.282;2023-05-07T07:51:52;13.80;99.90
51825;DHT22;37879;52.986;6.282;2023-05-07T07:54:18;13.90;99.90
51825;DHT22;37879;52.986;6.282;2023-05-07T07:56:43;14.10;99.90
51825;DHT22;37879;52.986;6.282;2023-05-07T07:59:09;14.30;99.90
51825;DHT22;37879;52.986;6.282;2023-05-07T08:01:35;14.40;99.90
51825;DHT22;37879;52.986;6.282;2023-05-07T08:04:00;14.60;99.90
51825;DHT22;37879;52.986;6.282;2023-05-07T08:06:28;14.60;99.90
51825;DHT22;37879;52.986;6.282;2023-05-07T08:08:54;14.50;99.90
51825;DHT22;37879;52.986;6.282;2023-05-07T08:11:20;14.40;99.90
51825;DHT22;37879;52.986;6.282;2023-05-07T08:13:47;14.40;99.90
51825;DHT22;37879;52.986;6.282;2023-05-07T08:16:13;14.40;99.90
51825;DHT22;37879;52.986;6.282;2023-05-07T08:18:38;14.30;99.90
51825;DHT22;37879;52.986;6.282;2023-05-07T08:21:04;14.40;99.90
51825;DHT22;37879;52.986;6.282;2023-05-07T08:23:30;14.30;99.90
51825;DHT22;37879;52.986;6.282;2023-05-07T08:25:56;14.30;99.90
51825;DHT22;37879;52.986;6.282;2023-05-07T08:28:21;14.30;99.90
51825;DHT22;37879;52.986;6.282;2023-05-07T08:30:47;14.40;99.90
51825;DHT22;37879;52.986;6.282;2023-05-07T08:33:13;14.90;99.90
51825;DHT22;37879;52.986;6.282;2023-05-07T08:35:39;14.70;99.90
51825;DHT22;37879;52.986;6.282;2023-05-07T08:38:04;14.80;99.90
51825;DHT22;37879;52.986;6.282;2023-05-07T08:40:37;14.80;99.90
51825;DHT22;37879;52.986;6.282;2023-05-07T08:43:05;14.90;99.90
51825;DHT22;37879;52.986;6.282;2023-05-07T08:45:33;15.00;99.90
51825;DHT22;37879;52.986;6.282;2023-05-07T08:48:02;15.00;99.90
51825;DHT22;37879;52.986;6.282;2023-05-07T08:50:28;14.90;99.90
51825;DHT22;37879;52.986;6.282;2023-05-07T08:52:55;14.90;99.90
51825;DHT22;37879;52.986;6.282;2023-05-07T08:55:22;14.90;99.90
51825;DHT22;37879;52.986;6.282;2023-05-07T08:57:49;15.00;99.90
51825;DHT22;37879;52.986;6.282;2023-05-07T09:00:15;15.20;99.90
51825;DHT22;37879;52.986;6.282;2023-05-07T09:02:41;15.20;99.90
51825;DHT22;37879;52.986;6.282;2023-05-07T09:05:07;15.30;99.90
51825;DHT22;37879;52.986;6.282;2023-05-07T09:07:33;15.30;99.90
51825;DHT22;37879;52.986;6.282;2023-05-07T09:10:05;15.20;99.90
51825;DHT22;37879;52.986;6.282;2023-05-07T09:12:31;15.30;99.90
51825;DHT22;37879;52.986;6.282;2023-05-07T09:14:57;15.40;99.90
51825;DHT22;37879;52.986;6.282;2023-05-07T09:17:22;15.50;99.90
51825;DHT22;37879;52.986;6.282;2023-05-07T09:19:48;15.60;99.90
51825;DHT22;37879;52.986;6.282;2023-05-07T09:22:14;15.50;99.90
51825;DHT22;37879;52.986;6.282;2023-05-07T09:24:39;15.50;99.90
51825;DHT22;37879;52.986;6.282;2023-05-07T09:27:06;15.60;99.90
51825;DHT22;37879;52.986;6.282;2023-05-07T09:29:32;15.70;99.90
51825;DHT22;37879;52.986;6.282;2023-05-07T09:32:05;15.80;99.90
51825;DHT22;37879;52.986;6.282;2023-05-07T09:34:31;15.80;99.90
51825;DHT22;37879;52.986;6.282;2023-05-07T09:37:00;16.00;99.90
51825;DHT22;37879;52.986;6.282;2023-05-07T09:39:26;16.10;99.90
51825;DHT22;37879;52.986;6.282;2023-05-07T09:42:03;16.20;99.90
51825;DHT22;37879;52.986;6.282;2023-05-07T09:44:31;16.10;99.90
51825;DHT22;37879;52.986;6.282;2023-05-07T09:47:00;16.10;99.90
51825;DHT22;37879;52.986;6.282;2023-05-07T09:49:29;16.10;99.90
51825;DHT22;37879;52.986;6.282;2023-05-07T09:51:56;16.10;99.90
51825;DHT22;37879;52.986;6.282;2023-05-07T09:54:22;16.10;99.90
51825;DHT22;37879;52.986;6.282;2023-05-07T09:56:48;16.30;99.90
51825;DHT22;37879;52.986;6.282;2023-05-07T09:59:16;16.40;99.90
51825;DHT22;37879;52.986;6.282;2023-05-07T10:01:43;16.40;99.90
51825;DHT22;37879;52.986;6.282;2023-05-07T10:04:10;16.50;99.90
51825;DHT22;37879;52.986;6.282;2023-05-07T10:06:37;16.50;99.90
51825;DHT22;37879;52.986;6.282;2023-05-07T10:09:05;16.70;99.90
51825;DHT22;37879;52.986;6.282;2023-05-07T10:11:35;16.80;99.90
51825;DHT22;37879;52.986;6.282;2023-05-07T10:14:02;16.80;99.90
51825;DHT22;37879;52.986;6.282;2023-05-07T10:16:31;16.70;99.90
51825;DHT22;37879;52.986;6.282;2023-05-07T10:18:58;16.70;99.90
51825;DHT22;37879;52.986;6.282;2023-05-07T10:21:24;16.80;99.90
51825;DHT22;37879;52.986;6.282;2023-05-07T10:24:08;16.90;99.90
51825;DHT22;37879;52.986;6.282;2023-05-07T10:26:40;17.00;99.90
51825;DHT22;37879;52.986;6.282;2023-05-07T10:29:13;17.00;99.90
51825;DHT22;37879;52.986;6.282;2023-05-07T10:34:14;17.20;99.90
51825;DHT22;37879;52.986;6.282;2023-05-07T10:36:40;17.30;99.90
51825;DHT22;37879;52.986;6.282;2023-05-07T10:39:07;17.10;99.90
51825;DHT22;37879;52.986;6.282;2023-05-07T10:41:33;17.10;99.90
51825;DHT22;37879;52.986;6.282;2023-05-07T10:43:59;17.20;99.90
51825;DHT22;37879;52.986;6.282;2023-05-07T10:46:27;17.40;99.90
51825;DHT22;37879;52.986;6.282;2023-05-07T10:51:34;16.90;99.90
51825;DHT22;37879;52.986;6.282;2023-05-07T10:56:35;17.50;99.90
51825;DHT22;37879;52.986;6.282;2023-05-07T11:01:53;17.70;99.90
51825;DHT22;37879;52.986;6.282;2023-05-07T11:04:19;17.70;99.90
51825;DHT22;37879;52.986;6.282;2023-05-07T11:07:14;17.80;99.90
51825;DHT22;37879;52.986;6.282;2023-05-07T11:15:12;17.90;99.90
51825;DHT22;37879;52.986;6.282;2023-05-07T11:17:58;17.90;99.90
51825;DHT22;37879;52.986;6.282;2023-05-07T11:20:45;18.00;99.90
51825;DHT22;37879;52.986;6.282;2023-05-07T11:26:08;18.00;99.90
51825;DHT22;37879;52.986;6.282;2023-05-07T11:28:43;18.10;99.90
51825;DHT22;37879;52.986;6.282;2023-05-07T11:31:09;18.00;99.90
51825;DHT22;37879;52.986;6.282;2023-05-07T11:33:36;18.10;99.90
51825;DHT22;37879;52.986;6.282;2023-05-07T11:36:05;18.10;99.90
51825;DHT22;37879;52.986;6.282;2023-05-07T11:38:36;18.20;99.90
51825;DHT22;37879;52.986;6.282;2023-05-07T11:41:02;18.30;99.90
51825;DHT22;37879;52.986;6.282;2023-05-07T11:43:31;18.20;99.90
51825;DHT22;37879;52.986;6.282;2023-05-07T11:46:06;18.20;99.90
51825;DHT22;37879;52.986;6.282;2023-05-07T11:48:32;18.30;99.90
51825;DHT22;37879;52.986;6.282;2023-05-07T11:53:28;18.70;99.90
51825;DHT22;37879;52.986;6.282;2023-05-07T11:55:59;18.90;99.90
51825;DHT22;37879;52.986;6.282;2023-05-07T11:58:25;19.00;99.90
51825;DHT22;37879;52.986;6.282;2023-05-07T12:00:52;19.10;99.90
51825;DHT22;37879;52.986;6.282;2023-05-07T12:03:17;19.00;99.90
51825;DHT22;37879;52.986;6.282;2023-05-07T12:05:44;19.00;99.90
51825;DHT22;37879;52.986;6.282;2023-05-07T12:08:21;18.90;99.90
51825;DHT22;37879;52.986;6.282;2023-05-07T12:10:48;18.90;99.90
51825;DHT22;37879;52.986;6.282;2023-05-07T12:13:18;19.00;99.90
51825;DHT22;37879;52.986;6.282;2023-05-07T12:15:44;19.20;99.90
51825;DHT22;37879;52.986;6.282;2023-05-07T12:18:13;19.20;99.90
51825;DHT22;37879;52.986;6.282;2023-05-07T12:20:39;19.20;99.90
51825;DHT22;37879;52.986;6.282;2023-05-07T12:23:05;19.20;99.90
51825;DHT22;37879;52.986;6.282;2023-05-07T12:25:41;19.20;99.90
51825;DHT22;37879;52.986;6.282;2023-05-07T12:28:16;19.30;99.90
51825;DHT22;37879;52.986;6.282;2023-05-07T12:30:43;19.30;99.90
51825;DHT22;37879;52.986;6.282;2023-05-07T12:33:09;19.30;99.90
51825;DHT22;37879;52.986;6.282;2023-05-07T12:35:40;19.30;99.90
51825;DHT22;37879;52.986;6.282;2023-05-07T12:38:13;19.30;99.90
51825;DHT22;37879;52.986;6.282;2023-05-07T12:40:42;19.30;99.90
51825;DHT22;37879;52.986;6.282;2023-05-07T12:43:08;19.30;99.90
51825;DHT22;37879;52.986;6.282;2023-05-07T12:45:41;19.30;99.90
51825;DHT22;37879;52.986;6.282;2023-05-07T12:48:09;19.30;99.90
51825;DHT22;37879;52.986;6.282;2023-05-07T12:50:35;19.40;99.90
51825;DHT22;37879;52.986;6.282;2023-05-07T12:53:03;19.50;99.90
51825;DHT22;37879;52.986;6.282;2023-05-07T12:55:32;19.50;99.90
51825;DHT22;37879;52.986;6.282;2023-05-07T12:58:00;19.50;99.90
51825;DHT22;37879;52.986;6.282;2023-05-07T13:00:37;19.50;99.90
51825;DHT22;37879;52.986;6.282;2023-05-07T13:03:03;19.50;99.90
51825;DHT22;37879;52.986;6.282;2023-05-07T13:05:28;19.50;99.90
51825;DHT22;37879;52.986;6.282;2023-05-07T13:07:55;19.40;99.90
51825;DHT22;37879;52.986;6.282;2023-05-07T13:10:22;19.30;99.90
51825;DHT22;37879;52.986;6.282;2023-05-07T13:12:48;19.30;99.90
51825;DHT22;37879;52.986;6.282;2023-05-07T13:15:14;19.30;99.90
51825;DHT22;37879;52.986;6.282;2023-05-07T13:17:40;19.50;99.90
51825;DHT22;37879;52.986;6.282;2023-05-07T13:20:06;19.70;99.90
51825;DHT22;37879;52.986;6.282;2023-05-07T13:22:33;19.90;99.90
51825;DHT22;37879;52.986;6.282;2023-05-07T13:24:59;20.20;99.90
51825;DHT22;37879;52.986;6.282;2023-05-07T13:27:24;20.60;99.90
51825;DHT22;37879;52.986;6.282;2023-05-07T13:29:51;20.80;99.90
51825;DHT22;37879;52.986;6.282;2023-05-07T13:32:17;21.10;99.90
51825;DHT22;37879;52.986;6.282;2023-05-07T13:34:43;21.10;99.90
51825;DHT22;37879;52.986;6.282;2023-05-07T13:37:08;21.10;99.90
51825;DHT22;37879;52.986;6.282;2023-05-07T13:39:34;21.20;99.90
51825;DHT22;37879;52.986;6.282;2023-05-07T13:41:59;21.30;99.90
51825;DHT22;37879;52.986;6.282;2023-05-07T13:44:26;21.50;99.90
51825;DHT22;37879;52.986;6.282;2023-05-07T13:46:52;21.50;99.90
51825;DHT22;37879;52.986;6.282;2023-05-07T13:49:17;21.40;99.90
51825;DHT22;37879;52.986;6.282;2023-05-07T13:51:43;21.40;99.90
51825;DHT22;37879;52.986;6.282;2023-05-07T13:54:08;21.30;99.90
51825;DHT22;37879;52.986;6.282;2023-05-07T13:56:34;21.20;99.90
51825;DHT22;37879;52.986;6.282;2023-05-07T13:59:00;21.10;99.90
51825;DHT22;37879;52.986;6.282;2023-05-07T14:01:26;21.00;99.90
51825;DHT22;37879;52.986;6.282;2023-05-07T14:03:52;21.00;99.90
51825;DHT22;37879;52.986;6.282;2023-05-07T14:06:18;20.90;99.90
51825;DHT22;37879;52.986;6.282;2023-05-07T14:08:43;20.90;99.90
51825;DHT22;37879;52.986;6.282;2023-05-07T14:11:09;21.00;99.90
51825;DHT22;37879;52.986;6.282;2023-05-07T14:13:34;21.10;99.90
51825;DHT22;37879;52.986;6.282;2023-05-07T14:16:00;21.20;99.90
51825;DHT22;37879;52.986;6.282;2023-05-07T14:18:26;21.20;99.90
51825;DHT22;37879;52.986;6.282;2023-05-07T14:20:54;21.10;99.90
51825;DHT22;37879;52.986;6.282;2023-05-07T14:23:19;21.10;99.90
51825;DHT22;37879;52.986;6.282;2023-05-07T14:25:47;21.10;99.90
51825;DHT22;37879;52.986;6.282;2023-05-07T14:28:13;21.00;99.90
51825;DHT22;37879;52.986;6.282;2023-05-07T14:30:39;21.10;99.90
51825;DHT22;37879;52.986;6.282;2023-05-07T14:33:04;21.00;99.90
51825;DHT22;37879;52.986;6.282;2023-05-07T14:35:30;21.00;99.90
51825;DHT22;37879;52.986;6.282;2023-05-07T14:37:56;20.90;99.90
51825;DHT22;37879;52.986;6.282;2023-05-07T14:40:21;20.80;99.90
51825;DHT22;37879;52.986;6.282;2023-05-07T14:42:47;20.80;99.90
51825;DHT22;37879;52.986;6.282;2023-05-07T14:45:13;21.30;99.90
51825;DHT22;37879;52.986;6.282;2023-05-07T14:47:38;20.80;99.90
51825;DHT22;37879;52.986;6.282;2023-05-07T14:50:04;20.70;99.90
51825;DHT22;37879;52.986;6.282;2023-05-07T14:52:30;20.70;99.90
51825;DHT22;37879;52.986;6.282;2023-05-07T14:54:56;20.70;99.90
51825;DHT22;37879;52.986;6.282;2023-05-07T14:57:21;20.70;99.90
51825;DHT22;37879;52.986;6.282;2023-05-07T14:59:47;20.80;99.90
51825;DHT22;37879;52.986;6.282;2023-05-07T15:02:13;21.00;99.90
51825;DHT22;37879;52.986;6.282;2023-05-07T15:04:39;21.20;99.90
51825;DHT22;37879;52.986;6.282;2023-05-07T15:07:14;21.30;99.90
51825;DHT22;37879;52.986;6.282;2023-05-07T15:09:44;21.40;99.90
51825;DHT22;37879;52.986;6.282;2023-05-07T15:12:10;21.50;99.90
51825;DHT22;37879;52.986;6.282;2023-05-07T15:14:37;21.80;99.90
51825;DHT22;37879;52.986;6.282;2023-05-07T15:17:03;21.80;99.90
51825;DHT22;37879;52.986;6.282;2023-05-07T15:19:29;21.80;99.90
51825;DHT22;37879;52.986;6.282;2023-05-07T15:21:57;21.70;99.90
51825;DHT22;37879;52.986;6.282;2023-05-07T15:24:23;21.50;99.90
51825;DHT22;37879;52.986;6.282;2023-05-07T15:26:51;21.20;99.90
51825;DHT22;37879;52.986;6.282;2023-05-07T15:29:17;21.00;99.90
51825;DHT22;37879;52.986;6.282;2023-05-07T15:31:42;20.90;99.90
51825;DHT22;37879;52.986;6.282;2023-05-07T15:34:08;20.90;99.90
51825;DHT22;37879;52.986;6.282;2023-05-07T15:36:34;20.80;99.90
51825;DHT22;37879;52.986;6.282;2023-05-07T15:38:59;20.70;99.90
51825;DHT22;37879;52.986;6.282;2023-05-07T15:41:27;20.70;99.90
51825;DHT22;37879;52.986;6.282;2023-05-07T15:43:52;20.70;99.90
51825;DHT22;37879;52.986;6.282;2023-05-07T15:46:19;20.70;99.90
51825;DHT22;37879;52.986;6.282;2023-05-07T15:48:46;20.70;99.90